Sevier River / Vermillion Canal




Date Battery Voltage (V) Canal Stage above Flume (ft) Canal Stage below Flume (ft) Canal Flow (cfs) Canal Gate Height (%) River Stage at Dam (ft) River Flow at Dam (cfs) Pond Stage at Gate (ft) Canal Stage Offset (ft) River Stage below Dam (ft) River Flow below Dam (cfs) Submergence Mossing CFS Set (cfs) Gate Set (%) Auto CFS Auto Gate Gate Warning Settle Count Gate Up Total Gate Down Total
07/01/2018 12.93 0.40 -0.36 9.4 0.45 49 1.88 268.30
07/02/2018 12.98 0.20 -0.40 2.4 0.58 69 1.88 268.30
07/03/2018 13.00 0.14 -0.40 1.4 0.58 69 1.88 268.30
07/04/2018 12.97 0.15 -0.40 1.5 0.53 61 1.88 268.20
07/05/2018 12.98 0.15 -0.40 1.5 0.57 67 1.88 266.90
07/06/2018 12.90 0.15 -0.40 1.5 0.70 93 1.88 267.30
07/07/2018 12.92 0.15 -0.40 1.5 0.74 99 1.88 267.60
07/08/2018 12.89 0.14 -0.40 1.3 0.67 86 1.88 267.60
07/09/2018 12.91 0.14 -0.40 1.3 0.70 91 1.88 267.60
07/10/2018 12.95 0.14 -0.40 1.3 0.75 101 1.88 266.60
07/11/2018 12.96 0.14 -0.40 1.3 0.59 70 1.88 267.00
07/12/2018 12.93 0.13 -0.40 1.3 0.63 79 1.87 266.20
07/13/2018 12.96 0.13 -0.40 1.2 0.64 80 1.87 265.00
07/14/2018 12.87 0.12 -0.40 1.1 0.61 76 1.87 264.70
07/15/2018 12.92 0.12 -0.40 1.1 0.78 108 1.86 263.00
07/16/2018 12.90 0.12 -0.40 1.1 0.65 82 1.87 265.60
07/17/2018 12.92 0.12 -0.40 1.1 0.58 70 1.88 267.10
07/18/2018 12.91 0.12 -0.40 1.1 0.86 129 1.87 266.10
07/19/2018 12.81 0.11 -0.40 0.9 0.48 53 1.86 264.10
07/20/2018 12.93 0.10 -0.41 0.8 0.36 34 1.86 264.30
07/21/2018 12.88 0.10 -0.41 0.8 0.37 35 1.86 264.00
07/22/2018 12.93 0.10 -0.41 0.8 0.32 29 1.86 264.00
07/23/2018 12.92 0.11 -0.41 0.9 0.35 32 1.87 266.40
07/24/2018 12.89 0.12 -0.41 1.0 0.45 48 1.87 265.90
07/25/2018 12.93 0.13 -0.41 1.1 0.54 62 1.87 264.80
07/26/2018 12.93 0.13 -0.41 1.1 0.51 57 1.87 264.80
07/27/2018 12.94 0.13 -0.41 1.1 0.54 62 1.87 264.70
07/28/2018 12.96 0.13 -0.41 1.1 0.47 50 1.87 264.60
07/29/2018 12.91 0.13 -0.41 1.1 0.40 40 1.87 265.90
07/30/2018 12.91 0.13 -0.41 1.1 0.44 46 1.87 266.20
07/31/2018 12.87 0.19 -0.41 2.5 0.39 39 1.87 265.10
Average 1.5 67 266.01 0.00
Maximum 9.4 129 268.30
Minimum 0.8 29 263.00
Total Volume (AF) 92.6 4,097 16,352.21 0.00